createdAt,value
2022-09-07T05:00:36.994Z,100243.40
2022-09-07T05:03:06.722Z,100246.40
2022-09-07T05:05:38.770Z,100241.60
2022-09-07T05:08:08.652Z,100242.60
2022-09-07T05:10:37.634Z,100240.40
2022-09-07T05:13:06.627Z,100241.20
2022-09-07T05:15:35.422Z,100235.00
2022-09-07T05:18:05.024Z,100238.20
2022-09-07T05:20:33.806Z,100234.40
2022-09-07T05:23:02.802Z,100241.80
2022-09-07T05:25:32.104Z,100242.00
2022-09-07T05:28:01.604Z,100244.00
2022-09-07T05:33:19.442Z,100245.60
2022-09-07T05:35:58.822Z,100240.60
2022-09-07T05:38:29.519Z,100237.20
2022-09-07T05:40:59.662Z,100242.20
2022-09-07T05:43:28.543Z,100243.80
2022-09-07T05:45:57.511Z,100248.20
2022-09-07T05:48:26.222Z,100254.20
2022-09-07T05:50:55.025Z,100259.20
2022-09-07T05:53:24.530Z,100260.00
2022-09-07T05:55:53.301Z,100254.80
2022-09-07T05:58:22.002Z,100248.20
2022-09-07T06:00:51.155Z,100252.40
2022-09-07T06:03:20.189Z,100254.20
2022-09-07T06:05:49.202Z,100256.80
2022-09-07T06:08:17.968Z,100261.80
2022-09-07T06:10:46.964Z,100260.80
2022-09-07T06:13:15.861Z,100258.20
2022-09-07T06:15:44.742Z,100259.40
2022-09-07T06:18:13.741Z,100263.80
2022-09-07T06:20:42.721Z,100263.20
2022-09-07T06:23:11.523Z,100262.00
2022-09-07T06:25:50.102Z,100261.80
2022-09-07T06:28:18.914Z,100254.20
2022-09-07T06:30:47.722Z,100250.20
2022-09-07T06:33:19.551Z,100250.00
2022-09-07T06:36:02.371Z,100253.80
2022-09-07T06:38:37.862Z,100253.80
2022-09-07T06:43:58.770Z,100255.00
2022-09-07T06:49:16.822Z,100252.00
2022-09-07T06:51:45.923Z,100248.60
2022-09-07T06:57:09.546Z,100242.00
2022-09-07T06:59:39.626Z,100246.40
2022-09-07T07:02:11.947Z,100246.40
2022-09-07T07:04:41.422Z,100249.00
2022-09-07T07:07:12.674Z,100240.40
2022-09-07T07:09:42.462Z,100238.80
2022-09-07T07:12:12.082Z,100244.80
2022-09-07T07:14:44.638Z,100235.40
2022-09-07T07:17:14.264Z,100235.60
2022-09-07T07:19:43.241Z,100236.80
2022-09-07T07:22:35.957Z,100234.60
2022-09-07T07:25:00.794Z,100231.40
2022-09-07T07:27:32.083Z,100229.40
2022-09-07T07:30:00.864Z,100228.00
2022-09-07T07:32:29.534Z,100229.40
2022-09-07T07:34:58.402Z,100231.80
2022-09-07T07:37:28.316Z,100232.60
2022-09-07T07:42:45.943Z,100226.00
2022-09-07T07:48:04.345Z,100226.40
2022-09-07T07:50:33.706Z,100226.20
2022-09-07T07:55:52.292Z,100225.00
2022-09-07T07:58:21.281Z,100226.60
2022-09-07T08:00:57.588Z,100225.80
2022-09-07T08:03:26.757Z,100228.20
2022-09-07T08:05:56.743Z,100229.40
2022-09-07T08:08:25.561Z,100233.40
2022-09-07T08:10:54.221Z,100237.60
2022-09-07T08:13:22.951Z,100236.00
2022-09-07T08:15:51.712Z,100237.20
2022-09-07T08:18:20.422Z,100238.80
2022-09-07T08:20:49.654Z,100237.60
2022-09-07T08:23:21.231Z,100237.20
2022-09-07T08:25:55.822Z,100233.00
2022-09-07T08:28:27.023Z,100235.40
2022-09-07T08:30:56.963Z,100230.20
2022-09-07T08:33:26.558Z,100224.00
2022-09-07T08:36:27.796Z,100227.80
2022-09-07T08:38:56.501Z,100228.40
2022-09-07T08:42:03.454Z,100221.60
2022-09-07T08:44:38.715Z,100212.80
2022-09-07T08:47:38.043Z,100213.20
2022-09-07T08:50:40.823Z,100208.80
2022-09-07T08:53:19.123Z,100209.60
2022-09-07T08:56:01.322Z,100203.20
2022-09-07T08:58:49.292Z,100201.60
2022-09-07T09:01:35.718Z,100205.40
2022-09-07T09:04:26.836Z,100203.00
2022-09-07T09:07:29.982Z,100198.80
2022-09-07T09:10:43.324Z,100197.40
2022-09-07T09:13:34.422Z,100196.40
2022-09-07T09:16:23.594Z,100195.80
2022-09-07T09:19:23.723Z,100191.60
2022-09-07T09:22:22.418Z,100198.80
2022-09-07T09:25:06.273Z,100182.80
2022-09-07T09:27:34.880Z,100179.20
2022-09-07T09:30:15.924Z,100171.80
2022-09-07T09:32:47.871Z,100166.00
2022-09-07T09:35:36.762Z,100166.20
2022-09-07T09:38:06.241Z,100163.80
2022-09-07T09:40:37.577Z,100154.80
2022-09-07T09:43:20.503Z,100158.20
2022-09-07T09:48:43.683Z,100153.80
2022-09-07T09:54:34.109Z,100158.60
2022-09-07T09:57:04.228Z,100163.20
2022-09-07T10:05:39.101Z,100157.20
2022-09-07T10:08:26.843Z,100162.20
2022-09-07T10:11:14.044Z,100161.00
2022-09-07T10:13:58.161Z,100159.60
2022-09-07T10:16:43.210Z,100157.60
2022-09-07T10:19:40.130Z,100151.40
2022-09-07T10:22:35.223Z,100151.40
2022-09-07T10:25:42.212Z,100156.40
2022-09-07T10:28:11.829Z,100151.60
2022-09-07T10:30:47.601Z,100154.40
2022-09-07T10:37:09.202Z,100160.40
2022-09-07T10:40:00.622Z,100155.60
2022-09-07T10:42:36.120Z,100150.00
2022-09-07T10:45:45.117Z,100141.40
2022-09-07T10:48:41.040Z,100134.40
2022-09-07T10:51:18.502Z,100130.20
2022-09-07T10:54:31.474Z,100137.80
2022-09-07T10:57:34.541Z,100128.00
2022-09-07T11:00:14.954Z,100136.80
2022-09-07T11:06:38.354Z,100126.00
2022-09-07T11:09:16.558Z,100129.20
2022-09-07T11:12:08.542Z,100130.80
2022-09-07T11:15:12.817Z,100128.60
2022-09-07T11:17:52.964Z,100129.00
2022-09-07T11:20:32.962Z,100126.20
2022-09-07T11:23:23.262Z,100124.40
2022-09-07T11:26:14.881Z,100116.00
2022-09-07T11:32:10.413Z,100103.20
2022-09-07T11:35:00.305Z,100108.80
2022-09-07T11:37:56.021Z,100106.80
2022-09-07T11:40:36.481Z,100099.80
2022-09-07T11:43:32.023Z,100101.80
2022-09-07T11:46:37.011Z,100103.00
2022-09-07T11:49:19.762Z,100111.00
2022-09-07T11:52:25.604Z,100112.80
2022-09-07T11:54:59.663Z,100111.00
2022-09-07T11:58:01.491Z,100110.80
2022-09-07T12:01:06.634Z,100104.60
2022-09-07T12:04:40.479Z,100102.80
2022-09-07T12:07:27.270Z,100101.60
2022-09-07T12:10:18.604Z,100097.80
2022-09-07T12:13:29.242Z,100097.20
2022-09-07T12:16:11.916Z,100099.80
2022-09-07T12:19:13.523Z,100091.80
2022-09-07T12:21:54.384Z,100086.00
2022-09-07T12:24:45.232Z,100080.60
2022-09-07T12:27:23.103Z,100078.40
2022-09-07T12:30:14.524Z,100073.80
2022-09-07T12:32:57.665Z,100079.80
2022-09-07T12:35:27.043Z,100072.20
2022-09-07T12:37:58.405Z,100066.00
2022-09-07T12:40:30.490Z,100066.60
2022-09-07T12:43:14.529Z,100056.60
2022-09-07T12:45:43.401Z,100053.00
2022-09-07T12:48:17.781Z,100047.80
2022-09-07T12:51:16.082Z,100046.40
2022-09-07T12:54:16.033Z,100044.80
2022-09-07T12:57:33.141Z,100043.20
2022-09-07T13:00:24.785Z,100043.20
2022-09-07T13:07:12.322Z,100039.40
2022-09-07T13:09:42.461Z,100032.00
2022-09-07T13:12:53.969Z,100025.80
2022-09-07T13:15:48.555Z,100023.60
2022-09-07T13:18:27.165Z,100022.80
2022-09-07T13:21:30.131Z,100024.60
2022-09-07T13:24:55.461Z,100018.20
2022-09-07T13:27:40.202Z,100017.80
2022-09-07T13:30:22.727Z,100011.80
2022-09-07T13:35:46.341Z,100010.40
2022-09-07T13:38:17.402Z,100002.40
2022-09-07T13:40:50.022Z,100010.00
2022-09-07T13:43:25.684Z,100011.00
2022-09-07T13:45:54.338Z,100011.20
2022-09-07T13:48:47.401Z,100005.80
2022-09-07T13:51:41.102Z,100001.20
2022-09-07T13:54:27.299Z,100000.20
2022-09-07T13:57:28.743Z,100002.20
2022-09-07T13:59:58.484Z,100013.20
2022-09-07T14:02:36.283Z,100005.20
2022-09-07T14:05:07.023Z,100003.40
2022-09-07T14:07:35.802Z,100000.00
2022-09-07T14:10:27.563Z,99996.80
2022-09-07T14:13:12.982Z,99994.60
2022-09-07T14:15:47.262Z,99989.80
2022-09-07T14:18:33.381Z,99990.60
2022-09-07T14:21:02.395Z,99985.40
2022-09-07T14:23:36.731Z,99987.00
2022-09-07T14:26:24.261Z,99988.20
2022-09-07T14:28:57.971Z,99983.60
2022-09-07T14:31:27.549Z,99979.40
2022-09-07T14:33:59.742Z,99981.40
2022-09-07T14:36:44.650Z,99982.00
2022-09-07T14:39:19.993Z,99978.80
2022-09-07T14:41:49.984Z,99976.20
2022-09-07T14:44:39.204Z,99979.80
2022-09-07T14:47:29.459Z,99972.20
2022-09-07T14:50:06.607Z,99970.20
2022-09-07T14:53:33.373Z,99957.80
2022-09-07T14:55:37.762Z,99960.20
2022-09-07T14:58:15.365Z,99955.60
2022-09-07T15:00:46.814Z,99959.00
2022-09-07T15:03:36.043Z,99958.60
2022-09-07T15:06:06.485Z,99964.80
2022-09-07T15:08:48.688Z,99961.80
2022-09-07T15:11:34.039Z,99957.60
2022-09-07T15:14:12.721Z,99953.80
2022-09-07T15:16:45.646Z,99951.80
2022-09-07T15:19:19.323Z,99953.00
2022-09-07T15:21:49.610Z,99954.20
2022-09-07T15:24:22.447Z,99952.40
2022-09-07T15:27:03.191Z,99949.20
2022-09-07T15:29:33.303Z,99948.00
2022-09-07T15:32:07.815Z,99944.60
2022-09-07T15:34:45.282Z,99942.40
2022-09-07T15:40:25.186Z,99931.80
2022-09-07T15:43:08.561Z,99936.40
2022-09-07T15:45:52.656Z,99939.80
2022-09-07T15:48:29.362Z,99936.20
2022-09-07T15:54:11.463Z,99939.60
2022-09-07T15:57:48.498Z,99942.00
2022-09-07T15:59:39.642Z,99942.40
2022-09-07T16:05:06.967Z,99938.00
2022-09-07T16:10:31.189Z,99935.80
2022-09-07T16:13:02.890Z,99932.60
2022-09-07T16:15:47.541Z,99934.40
2022-09-07T16:18:18.967Z,99929.00
2022-09-07T16:20:52.690Z,99923.40
2022-09-07T16:23:22.302Z,99924.40
2022-09-07T16:26:00.385Z,99918.20
2022-09-07T16:28:30.666Z,99919.20
2022-09-07T16:31:00.768Z,99916.40
2022-09-07T16:33:36.639Z,99914.40
2022-09-07T16:36:15.997Z,99915.40
2022-09-07T16:38:49.203Z,99910.80
2022-09-07T16:41:26.902Z,99908.40
2022-09-07T16:43:56.866Z,99905.40
2022-09-07T16:46:28.969Z,99904.60
2022-09-07T16:48:58.123Z,99905.40
2022-09-07T16:51:28.606Z,99908.20
2022-09-07T16:53:59.402Z,99902.80
2022-09-07T16:56:35.663Z,99898.00
2022-09-07T16:59:11.922Z,99901.80
2022-09-07T17:01:40.800Z,99903.00
2022-09-07T17:04:11.304Z,99901.20
2022-09-07T17:06:41.362Z,99901.60
2022-09-07T17:09:13.687Z,99898.00
2022-09-07T17:11:42.645Z,99902.40
2022-09-07T17:14:12.022Z,99909.60
2022-09-07T17:16:42.191Z,99908.40
2022-09-07T17:19:38.571Z,99906.00
2022-09-07T17:22:03.882Z,99911.20
2022-09-07T17:24:32.718Z,99905.40
2022-09-07T17:27:02.683Z,99912.80
2022-09-07T17:29:37.033Z,99910.60
2022-09-07T17:34:58.763Z,99904.40
2022-09-07T17:37:27.566Z,99907.20
2022-09-07T17:39:56.881Z,99910.40
2022-09-07T17:43:38.683Z,99906.20
2022-09-07T17:45:17.766Z,99912.20
2022-09-07T17:47:46.663Z,99921.40
2022-09-07T17:52:17.822Z,99926.60
2022-09-07T17:54:46.602Z,99924.40
2022-09-07T17:57:15.302Z,99927.40
2022-09-07T18:02:33.664Z,99941.60
2022-09-07T18:05:04.056Z,99943.40
2022-09-07T18:07:32.939Z,99942.40
2022-09-07T18:10:01.862Z,99945.40
2022-09-07T18:12:30.662Z,99949.00
2022-09-07T18:14:59.762Z,99948.80
2022-09-07T18:17:28.742Z,99945.80
2022-09-07T18:19:58.021Z,99939.00
2022-09-07T18:22:26.942Z,99933.20
2022-09-07T18:24:55.722Z,99936.20
2022-09-07T18:27:26.163Z,99937.00
2022-09-07T18:29:54.943Z,99941.20
2022-09-07T18:32:24.242Z,99944.60
2022-09-07T18:34:53.142Z,99942.60
2022-09-07T18:37:21.922Z,99942.60
2022-09-07T18:39:50.877Z,99947.20
2022-09-07T18:42:19.810Z,99945.60
2022-09-07T18:47:40.050Z,99943.40
2022-09-07T18:50:10.127Z,99940.20
2022-09-07T18:52:59.184Z,99943.60
2022-09-07T18:55:28.110Z,99939.40
2022-09-07T18:57:57.303Z,99937.40
2022-09-07T19:00:26.083Z,99938.80
2022-09-07T19:02:54.863Z,99939.20
2022-09-07T19:08:12.523Z,99939.20
2022-09-07T19:10:41.303Z,99930.20
2022-09-07T19:13:10.084Z,99926.00
2022-09-07T19:15:39.083Z,99929.20
2022-09-07T19:18:09.643Z,99927.60
2022-09-07T19:20:38.802Z,99924.80
2022-09-07T19:23:07.703Z,99921.20
2022-09-07T19:25:41.763Z,99915.00
2022-09-07T19:28:10.662Z,99915.60
2022-09-07T19:30:39.602Z,99911.00
2022-09-07T19:33:12.485Z,99911.00
2022-09-07T19:35:41.377Z,99909.00
2022-09-07T19:38:10.884Z,99902.00
2022-09-07T19:40:40.391Z,99904.60
2022-09-07T19:43:09.505Z,99898.00
2022-09-07T19:45:40.311Z,99896.40
2022-09-07T19:48:09.000Z,99891.40
2022-09-07T19:50:37.796Z,99891.60
2022-09-07T19:53:06.902Z,99893.60
2022-09-07T19:55:35.788Z,99893.20
2022-09-07T19:58:04.685Z,99892.40
2022-09-07T20:00:33.616Z,99887.00
2022-09-07T20:03:02.562Z,99891.40
2022-09-07T20:05:31.558Z,99895.40
2022-09-07T20:08:00.354Z,99898.60
2022-09-07T20:10:30.883Z,99890.60
2022-09-07T20:12:59.996Z,99891.80
2022-09-07T20:15:29.286Z,99889.80
2022-09-07T20:17:58.163Z,99887.80
2022-09-07T20:20:27.264Z,99886.80
2022-09-07T20:22:56.384Z,99885.00
2022-09-07T20:25:25.245Z,99884.40
2022-09-07T20:27:54.003Z,99885.40
2022-09-07T20:30:24.663Z,99885.40
2022-09-07T20:32:53.673Z,99880.80
2022-09-07T20:35:22.543Z,99886.00
2022-09-07T20:37:51.344Z,99879.40
2022-09-07T20:40:19.999Z,99875.00
2022-09-07T20:42:48.705Z,99875.40
2022-09-07T20:45:17.626Z,99881.20
2022-09-07T20:47:46.512Z,99884.40
2022-09-07T20:50:15.704Z,99878.20
2022-09-07T20:52:44.575Z,99879.00
2022-09-07T20:55:13.283Z,99880.60
2022-09-07T20:57:42.172Z,99880.00
2022-09-07T21:00:11.504Z,99878.00
2022-09-07T21:02:40.343Z,99877.80
2022-09-07T21:05:09.863Z,99877.20
2022-09-07T21:07:40.343Z,99883.40
2022-09-07T21:10:10.445Z,99879.00
2022-09-07T21:12:39.105Z,99881.60
2022-09-07T21:15:09.385Z,99875.40
2022-09-07T21:17:39.124Z,99878.80
2022-09-07T21:20:08.472Z,99884.00
2022-09-07T21:22:37.244Z,99890.00
2022-09-07T21:25:06.963Z,99890.80
2022-09-07T21:27:38.818Z,99883.00
2022-09-07T21:30:09.465Z,99887.20
2022-09-07T21:32:38.125Z,99889.60
2022-09-07T21:35:08.285Z,99888.20
2022-09-07T21:37:38.072Z,99890.00
2022-09-07T21:40:08.055Z,99895.20
2022-09-07T21:42:37.064Z,99894.80
2022-09-07T21:45:10.752Z,99889.60
2022-09-07T21:47:39.444Z,99890.80
2022-09-07T21:50:08.452Z,99893.80
2022-09-07T21:52:40.303Z,99897.40
2022-09-07T21:55:09.602Z,99900.20
2022-09-07T21:57:38.894Z,99897.20
